sensor_id;sensor_type;location;lat;lon;timestamp;pressure;altitude;pressure_sealevel;temperature;humidity
28935;BME280;16044;52.726;-2.108;2022-12-18T00:01:25;101034.41;;;-1.57;100.00
28935;BME280;16044;52.726;-2.108;2022-12-18T00:03:55;101040.84;;;-1.61;99.95
28935;BME280;16044;52.726;-2.108;2022-12-18T00:06:23;101043.72;;;-1.65;99.98
28935;BME280;16044;52.726;-2.108;2022-12-18T00:08:51;101046.47;;;-1.67;99.96
28935;BME280;16044;52.726;-2.108;2022-12-18T00:11:21;101052.81;;;-1.69;99.95
28935;BME280;16044;52.726;-2.108;2022-12-18T00:13:49;101052.13;;;-1.73;99.89
28935;BME280;16044;52.726;-2.108;2022-12-18T00:16:21;101038.22;;;-1.78;99.99
28935;BME280;16044;52.726;-2.108;2022-12-18T00:18:51;101043.63;;;-1.80;100.00
28935;BME280;16044;52.726;-2.108;2022-12-18T00:21:20;101039.25;;;-1.81;99.87
28935;BME280;16044;52.726;-2.108;2022-12-18T00:23:49;101037.63;;;-1.83;99.78
28935;BME280;16044;52.726;-2.108;2022-12-18T00:26:31;101039.50;;;-1.85;100.00
28935;BME280;16044;52.726;-2.108;2022-12-18T00:29:04;101033.34;;;-1.86;99.98
28935;BME280;16044;52.726;-2.108;2022-12-18T00:31:37;101038.72;;;-1.87;100.00
28935;BME280;16044;52.726;-2.108;2022-12-18T00:34:05;101046.63;;;-1.86;100.00
28935;BME280;16044;52.726;-2.108;2022-12-18T00:36:34;101040.53;;;-1.88;100.00
28935;BME280;16044;52.726;-2.108;2022-12-18T00:39:04;101045.06;;;-1.90;99.90
28935;BME280;16044;52.726;-2.108;2022-12-18T00:41:32;101045.22;;;-1.93;99.71
28935;BME280;16044;52.726;-2.108;2022-12-18T00:44:19;101036.47;;;-1.95;99.70
28935;BME280;16044;52.726;-2.108;2022-12-18T00:46:47;101034.09;;;-2.00;99.39
28935;BME280;16044;52.726;-2.108;2022-12-18T00:49:19;101030.81;;;-2.05;99.40
28935;BME280;16044;52.726;-2.108;2022-12-18T00:51:47;101023.03;;;-2.08;99.26
28935;BME280;16044;52.726;-2.108;2022-12-18T00:54:15;101027.53;;;-2.10;99.41
28935;BME280;16044;52.726;-2.108;2022-12-18T00:56:42;101025.13;;;-2.14;99.20
28935;BME280;16044;52.726;-2.108;2022-12-18T00:59:17;101032.47;;;-2.20;98.74
28935;BME280;16044;52.726;-2.108;2022-12-18T01:01:45;101029.31;;;-2.26;98.62
28935;BME280;16044;52.726;-2.108;2022-12-18T01:04:14;101026.09;;;-2.33;98.18
28935;BME280;16044;52.726;-2.108;2022-12-18T01:06:41;101033.47;;;-2.38;97.97
28935;BME280;16044;52.726;-2.108;2022-12-18T01:09:08;101026.75;;;-2.45;97.68
28935;BME280;16044;52.726;-2.108;2022-12-18T01:11:34;101022.56;;;-2.49;97.79
28935;BME280;16044;52.726;-2.108;2022-12-18T01:14:01;101021.75;;;-2.51;98.08
28935;BME280;16044;52.726;-2.108;2022-12-18T01:16:29;101014.91;;;-2.56;98.53
28935;BME280;16044;52.726;-2.108;2022-12-18T01:18:55;101013.19;;;-2.57;99.43
28935;BME280;16044;52.726;-2.108;2022-12-18T01:21:23;101015.66;;;-2.53;99.66
28935;BME280;16044;52.726;-2.108;2022-12-18T01:23:52;101014.59;;;-2.49;99.92
28935;BME280;16044;52.726;-2.108;2022-12-18T01:26:21;101014.50;;;-2.48;100.00
28935;BME280;16044;52.726;-2.108;2022-12-18T01:28:48;100999.34;;;-2.46;100.00
28935;BME280;16044;52.726;-2.108;2022-12-18T01:31:24;100990.38;;;-2.43;100.00
28935;BME280;16044;52.726;-2.108;2022-12-18T01:33:53;100991.16;;;-2.41;100.00
28935;BME280;16044;52.726;-2.108;2022-12-18T01:36:28;100997.31;;;-2.41;100.00
28935;BME280;16044;52.726;-2.108;2022-12-18T01:39:04;100999.81;;;-2.38;100.00
28935;BME280;16044;52.726;-2.108;2022-12-18T01:41:37;100997.16;;;-2.38;100.00
28935;BME280;16044;52.726;-2.108;2022-12-18T01:48:00;101007.84;;;-2.39;100.00
28935;BME280;16044;52.726;-2.108;2022-12-18T01:53:21;100996.97;;;-2.35;100.00
28935;BME280;16044;52.726;-2.108;2022-12-18T01:55:52;100995.78;;;-2.29;100.00
28935;BME280;16044;52.726;-2.108;2022-12-18T01:58:24;100992.13;;;-2.26;100.00
28935;BME280;16044;52.726;-2.108;2022-12-18T02:01:00;100997.97;;;-2.20;100.00
28935;BME280;16044;52.726;-2.108;2022-12-18T02:03:27;101007.66;;;-2.19;100.00
28935;BME280;16044;52.726;-2.108;2022-12-18T02:05:57;101006.63;;;-2.16;100.00
28935;BME280;16044;52.726;-2.108;2022-12-18T02:11:27;101016.91;;;-2.10;100.00
28935;BME280;16044;52.726;-2.108;2022-12-18T02:17:19;101023.03;;;-2.08;100.00
28935;BME280;16044;52.726;-2.108;2022-12-18T02:20:18;101017.78;;;-2.09;100.00
28935;BME280;16044;52.726;-2.108;2022-12-18T02:28:41;101046.06;;;-2.08;100.00
28935;BME280;16044;52.726;-2.108;2022-12-18T02:31:14;101036.53;;;-2.12;100.00
28935;BME280;16044;52.726;-2.108;2022-12-18T02:33:44;101035.44;;;-2.08;100.00
28935;BME280;16044;52.726;-2.108;2022-12-18T02:36:14;101031.06;;;-2.09;100.00
28935;BME280;16044;52.726;-2.108;2022-12-18T02:38:43;101042.63;;;-2.10;100.00
28935;BME280;16044;52.726;-2.108;2022-12-18T02:41:13;101040.94;;;-2.11;100.00
28935;BME280;16044;52.726;-2.108;2022-12-18T02:43:46;101039.97;;;-2.10;100.00
28935;BME280;16044;52.726;-2.108;2022-12-18T02:46:32;101017.94;;;-2.12;100.00
28935;BME280;16044;52.726;-2.108;2022-12-18T02:52:06;101018.97;;;-2.15;100.00
28935;BME280;16044;52.726;-2.108;2022-12-18T03:00:16;101008.44;;;-2.17;100.00
28935;BME280;16044;52.726;-2.108;2022-12-18T03:03:29;101009.22;;;-2.14;100.00
28935;BME280;16044;52.726;-2.108;2022-12-18T03:06:06;101002.84;;;-2.12;100.00
28935;BME280;16044;52.726;-2.108;2022-12-18T03:09:02;101002.72;;;-2.09;100.00
28935;BME280;16044;52.726;-2.108;2022-12-18T03:11:34;100992.78;;;-2.05;100.00
28935;BME280;16044;52.726;-2.108;2022-12-18T03:14:29;100979.50;;;-2.05;100.00
28935;BME280;16044;52.726;-2.108;2022-12-18T03:17:01;100979.22;;;-2.01;100.00
28935;BME280;16044;52.726;-2.108;2022-12-18T03:19:32;100966.63;;;-1.97;100.00
28935;BME280;16044;52.726;-2.108;2022-12-18T03:22:02;100963.81;;;-1.94;100.00
28935;BME280;16044;52.726;-2.108;2022-12-18T03:24:31;100962.00;;;-1.93;100.00
28935;BME280;16044;52.726;-2.108;2022-12-18T03:27:06;100961.00;;;-1.91;100.00
28935;BME280;16044;52.726;-2.108;2022-12-18T03:29:40;100947.72;;;-1.91;100.00
28935;BME280;16044;52.726;-2.108;2022-12-18T03:32:15;100943.06;;;-1.87;100.00
28935;BME280;16044;52.726;-2.108;2022-12-18T03:34:49;100950.13;;;-1.86;100.00
28935;BME280;16044;52.726;-2.108;2022-12-18T03:37:17;100948.06;;;-1.81;100.00
28935;BME280;16044;52.726;-2.108;2022-12-18T03:39:44;100950.53;;;-1.78;100.00
28935;BME280;16044;52.726;-2.108;2022-12-18T03:45:05;100941.56;;;-1.75;100.00
28935;BME280;16044;52.726;-2.108;2022-12-18T03:50:32;100937.09;;;-1.75;100.00
28935;BME280;16044;52.726;-2.108;2022-12-18T03:53:15;100931.75;;;-1.75;100.00
28935;BME280;16044;52.726;-2.108;2022-12-18T03:55:50;100919.41;;;-1.76;100.00
28935;BME280;16044;52.726;-2.108;2022-12-18T03:58:21;100908.91;;;-1.78;100.00
28935;BME280;16044;52.726;-2.108;2022-12-18T04:00:52;100910.44;;;-1.73;100.00
28935;BME280;16044;52.726;-2.108;2022-12-18T04:03:22;100902.44;;;-1.73;100.00
28935;BME280;16044;52.726;-2.108;2022-12-18T04:05:54;100902.53;;;-1.75;100.00
28935;BME280;16044;52.726;-2.108;2022-12-18T04:08:22;100904.34;;;-1.75;100.00
28935;BME280;16044;52.726;-2.108;2022-12-18T04:10:50;100891.75;;;-1.72;100.00
28935;BME280;16044;52.726;-2.108;2022-12-18T04:13:43;100885.47;;;-1.71;100.00
28935;BME280;16044;52.726;-2.108;2022-12-18T04:16:10;100886.50;;;-1.73;100.00
28935;BME280;16044;52.726;-2.108;2022-12-18T04:18:37;100881.97;;;-1.71;100.00
28935;BME280;16044;52.726;-2.108;2022-12-18T04:21:04;100881.97;;;-1.71;100.00
28935;BME280;16044;52.726;-2.108;2022-12-18T04:23:31;100873.97;;;-1.71;100.00
28935;BME280;16044;52.726;-2.108;2022-12-18T04:25:58;100866.94;;;-1.72;100.00
28935;BME280;16044;52.726;-2.108;2022-12-18T04:28:25;100865.25;;;-1.73;100.00
28935;BME280;16044;52.726;-2.108;2022-12-18T04:30:51;100853.50;;;-1.69;100.00
28935;BME280;16044;52.726;-2.108;2022-12-18T04:33:18;100846.19;;;-1.66;100.00
28935;BME280;16044;52.726;-2.108;2022-12-18T04:35:46;100835.28;;;-1.61;100.00
28935;BME280;16044;52.726;-2.108;2022-12-18T04:38:13;100840.50;;;-1.60;100.00
28935;BME280;16044;52.726;-2.108;2022-12-18T04:40:40;100844.63;;;-1.54;100.00
28935;BME280;16044;52.726;-2.108;2022-12-18T04:43:08;100833.97;;;-1.54;100.00
28935;BME280;16044;52.726;-2.108;2022-12-18T04:45:35;100820.59;;;-1.52;100.00
28935;BME280;16044;52.726;-2.108;2022-12-18T04:48:03;100805.31;;;-1.49;100.00
28935;BME280;16044;52.726;-2.108;2022-12-18T04:50:31;100803.44;;;-1.47;100.00
28935;BME280;16044;52.726;-2.108;2022-12-18T04:52:58;100790.06;;;-1.45;100.00
28935;BME280;16044;52.726;-2.108;2022-12-18T04:55:26;100776.09;;;-1.49;100.00
28935;BME280;16044;52.726;-2.108;2022-12-18T04:57:53;100774.56;;;-1.53;100.00
28935;BME280;16044;52.726;-2.108;2022-12-18T05:00:20;100772.28;;;-1.45;100.00
28935;BME280;16044;52.726;-2.108;2022-12-18T05:02:48;100765.44;;;-1.49;100.00
28935;BME280;16044;52.726;-2.108;2022-12-18T05:05:15;100746.47;;;-1.43;100.00
28935;BME280;16044;52.726;-2.108;2022-12-18T05:07:42;100745.69;;;-1.45;100.00
28935;BME280;16044;52.726;-2.108;2022-12-18T05:10:09;100744.72;;;-1.44;100.00
28935;BME280;16044;52.726;-2.108;2022-12-18T05:12:36;100749.88;;;-1.41;100.00
28935;BME280;16044;52.726;-2.108;2022-12-18T05:15:30;100758.03;;;-1.44;100.00
28935;BME280;16044;52.726;-2.108;2022-12-18T05:17:58;100767.06;;;-1.46;100.00
28935;BME280;16044;52.726;-2.108;2022-12-18T05:20:26;100770.31;;;-1.41;100.00
28935;BME280;16044;52.726;-2.108;2022-12-18T05:22:54;100769.63;;;-1.45;100.00
28935;BME280;16044;52.726;-2.108;2022-12-18T05:25:22;100777.31;;;-1.40;100.00
28935;BME280;16044;52.726;-2.108;2022-12-18T05:27:49;100788.91;;;-1.41;100.00
28935;BME280;16044;52.726;-2.108;2022-12-18T05:30:16;100793.19;;;-1.39;100.00
28935;BME280;16044;52.726;-2.108;2022-12-18T05:32:43;100786.72;;;-1.34;100.00
28935;BME280;16044;52.726;-2.108;2022-12-18T05:35:10;100792.25;;;-1.38;100.00
28935;BME280;16044;52.726;-2.108;2022-12-18T05:37:37;100797.19;;;-1.31;100.00
28935;BME280;16044;52.726;-2.108;2022-12-18T05:40:09;100796.34;;;-1.32;100.00
28935;BME280;16044;52.726;-2.108;2022-12-18T05:42:36;100788.44;;;-1.33;100.00
28935;BME280;16044;52.726;-2.108;2022-12-18T05:45:04;100784.47;;;-1.26;100.00
28935;BME280;16044;52.726;-2.108;2022-12-18T05:47:32;100774.00;;;-1.29;100.00
28935;BME280;16044;52.726;-2.108;2022-12-18T05:49:59;100776.41;;;-1.25;100.00
28935;BME280;16044;52.726;-2.108;2022-12-18T05:52:26;100768.31;;;-1.23;100.00
28935;BME280;16044;52.726;-2.108;2022-12-18T05:54:53;100755.00;;;-1.23;100.00
28935;BME280;16044;52.726;-2.108;2022-12-18T05:57:19;100737.94;;;-1.19;100.00
28935;BME280;16044;52.726;-2.108;2022-12-18T05:59:46;100725.56;;;-1.20;100.00
28935;BME280;16044;52.726;-2.108;2022-12-18T06:02:13;100730.91;;;-1.20;100.00
28935;BME280;16044;52.726;-2.108;2022-12-18T06:04:41;100733.47;;;-1.19;100.00
28935;BME280;16044;52.726;-2.108;2022-12-18T06:07:07;100716.00;;;-1.23;100.00
28935;BME280;16044;52.726;-2.108;2022-12-18T06:09:34;100711.34;;;-1.19;100.00
28935;BME280;16044;52.726;-2.108;2022-12-18T06:12:01;100711.13;;;-1.16;100.00
28935;BME280;16044;52.726;-2.108;2022-12-18T06:14:28;100718.19;;;-1.15;100.00
28935;BME280;16044;52.726;-2.108;2022-12-18T06:16:58;100719.31;;;-1.19;100.00
28935;BME280;16044;52.726;-2.108;2022-12-18T06:19:25;100732.41;;;-1.16;100.00
28935;BME280;16044;52.726;-2.108;2022-12-18T06:21:52;100735.66;;;-1.11;100.00
28935;BME280;16044;52.726;-2.108;2022-12-18T06:24:19;100737.47;;;-1.11;100.00
28935;BME280;16044;52.726;-2.108;2022-12-18T06:26:46;100720.84;;;-1.15;100.00
28935;BME280;16044;52.726;-2.108;2022-12-18T06:29:13;100717.28;;;-1.15;100.00
28935;BME280;16044;52.726;-2.108;2022-12-18T06:31:39;100733.25;;;-1.15;100.00
28935;BME280;16044;52.726;-2.108;2022-12-18T06:34:07;100735.81;;;-1.14;100.00
28935;BME280;16044;52.726;-2.108;2022-12-18T06:36:34;100735.44;;;-1.08;100.00
28935;BME280;16044;52.726;-2.108;2022-12-18T06:39:01;100717.13;;;-1.12;100.00
28935;BME280;16044;52.726;-2.108;2022-12-18T06:41:28;100717.78;;;-1.09;100.00
28935;BME280;16044;52.726;-2.108;2022-12-18T06:43:54;100710.38;;;-1.04;100.00
28935;BME280;16044;52.726;-2.108;2022-12-18T06:46:25;100707.91;;;-1.07;100.00
28935;BME280;16044;52.726;-2.108;2022-12-18T06:48:52;100704.31;;;-1.06;100.00
28935;BME280;16044;52.726;-2.108;2022-12-18T06:51:20;100707.91;;;-1.07;100.00
28935;BME280;16044;52.726;-2.108;2022-12-18T06:53:48;100701.63;;;-1.06;100.00
28935;BME280;16044;52.726;-2.108;2022-12-18T06:56:16;100695.25;;;-1.03;100.00
28935;BME280;16044;52.726;-2.108;2022-12-18T06:58:43;100690.78;;;-1.03;100.00
28935;BME280;16044;52.726;-2.108;2022-12-18T07:01:11;100688.97;;;-1.02;100.00
28935;BME280;16044;52.726;-2.108;2022-12-18T07:03:40;100685.47;;;-1.03;100.00
28935;BME280;16044;52.726;-2.108;2022-12-18T07:06:17;100671.00;;;-0.99;100.00
28935;BME280;16044;52.726;-2.108;2022-12-18T07:08:46;100674.53;;;-0.98;100.00
28935;BME280;16044;52.726;-2.108;2022-12-18T07:11:14;100687.72;;;-0.96;100.00
28935;BME280;16044;52.726;-2.108;2022-12-18T07:13:42;100690.59;;;-1.00;100.00
28935;BME280;16044;52.726;-2.108;2022-12-18T07:16:16;100693.84;;;-0.94;100.00
28935;BME280;16044;52.726;-2.108;2022-12-18T07:18:51;100710.66;;;-0.94;100.00
28935;BME280;16044;52.726;-2.108;2022-12-18T07:21:19;100707.97;;;-0.94;100.00
28935;BME280;16044;52.726;-2.108;2022-12-18T07:23:46;100711.31;;;-0.90;100.00
28935;BME280;16044;52.726;-2.108;2022-12-18T07:26:17;100707.69;;;-0.89;100.00
28935;BME280;16044;52.726;-2.108;2022-12-18T07:28:45;100702.56;;;-0.92;100.00
28935;BME280;16044;52.726;-2.108;2022-12-18T07:31:20;100713.97;;;-0.90;100.00
28935;BME280;16044;52.726;-2.108;2022-12-18T07:33:49;100705.91;;;-0.89;100.00
28935;BME280;16044;52.726;-2.108;2022-12-18T07:36:17;100690.97;;;-0.91;100.00
28935;BME280;16044;52.726;-2.108;2022-12-18T07:38:46;100685.53;;;-0.90;100.00
28935;BME280;16044;52.726;-2.108;2022-12-18T07:41:15;100695.13;;;-0.87;100.00
28935;BME280;16044;52.726;-2.108;2022-12-18T07:43:42;100690.56;;;-0.85;100.00
28935;BME280;16044;52.726;-2.108;2022-12-18T07:46:11;100694.94;;;-0.84;100.00
28935;BME280;16044;52.726;-2.108;2022-12-18T07:48:42;100694.09;;;-0.85;100.00
28935;BME280;16044;52.726;-2.108;2022-12-18T07:51:11;100688.78;;;-0.85;100.00
28935;BME280;16044;52.726;-2.108;2022-12-18T07:53:39;100695.03;;;-0.86;100.00
28935;BME280;16044;52.726;-2.108;2022-12-18T07:56:09;100700.16;;;-0.83;100.00
28935;BME280;16044;52.726;-2.108;2022-12-18T07:58:53;100705.91;;;-0.89;100.00
28935;BME280;16044;52.726;-2.108;2022-12-18T08:01:20;100705.41;;;-0.81;100.00
28935;BME280;16044;52.726;-2.108;2022-12-18T08:03:47;100712.41;;;-0.80;100.00
28935;BME280;16044;52.726;-2.108;2022-12-18T08:06:17;100707.19;;;-0.82;100.00
28935;BME280;16044;52.726;-2.108;2022-12-18T08:08:53;100718.59;;;-0.80;100.00
28935;BME280;16044;52.726;-2.108;2022-12-18T08:11:23;100717.66;;;-0.79;100.00
28935;BME280;16044;52.726;-2.108;2022-12-18T08:13:51;100713.91;;;-0.76;100.00
28935;BME280;16044;52.726;-2.108;2022-12-18T08:16:19;100720.97;;;-0.75;100.00
28935;BME280;16044;52.726;-2.108;2022-12-18T08:18:48;100712.00;;;-0.74;100.00
28935;BME280;16044;52.726;-2.108;2022-12-18T08:21:19;100713.56;;;-0.70;100.00
28935;BME280;16044;52.726;-2.108;2022-12-18T08:23:50;100701.19;;;-0.71;100.00
28935;BME280;16044;52.726;-2.108;2022-12-18T08:26:19;100699.09;;;-0.66;100.00
28935;BME280;16044;52.726;-2.108;2022-12-18T08:28:47;100684.16;;;-0.68;100.00
28935;BME280;16044;52.726;-2.108;2022-12-18T08:31:16;100681.47;;;-0.68;100.00
28935;BME280;16044;52.726;-2.108;2022-12-18T08:33:44;100671.59;;;-0.66;100.00
28935;BME280;16044;52.726;-2.108;2022-12-18T08:36:12;100660.75;;;-0.63;100.00
28935;BME280;16044;52.726;-2.108;2022-12-18T08:38:39;100661.22;;;-0.56;100.00
28935;BME280;16044;52.726;-2.108;2022-12-18T08:41:13;100659.06;;;-0.64;100.00
28935;BME280;16044;52.726;-2.108;2022-12-18T08:43:41;100642.25;;;-0.52;100.00
28935;BME280;16044;52.726;-2.108;2022-12-18T08:46:32;100645.03;;;-0.53;100.00
28935;BME280;16044;52.726;-2.108;2022-12-18T08:49:04;100644.63;;;-0.47;100.00
28935;BME280;16044;52.726;-2.108;2022-12-18T08:51:32;100637.59;;;-0.48;100.00
28935;BME280;16044;52.726;-2.108;2022-12-18T08:54:00;100629.50;;;-0.47;100.00
28935;BME280;16044;52.726;-2.108;2022-12-18T08:56:28;100620.44;;;-0.44;100.00
28935;BME280;16044;52.726;-2.108;2022-12-18T08:58:56;100596.19;;;-0.40;100.00
28935;BME280;16044;52.726;-2.108;2022-12-18T09:01:24;100595.44;;;-0.42;100.00
28935;BME280;16044;52.726;-2.108;2022-12-18T09:03:51;100589.88;;;-0.38;100.00
28935;BME280;16044;52.726;-2.108;2022-12-18T09:06:20;100587.78;;;-0.33;100.00
28935;BME280;16044;52.726;-2.108;2022-12-18T09:08:47;100587.53;;;-0.30;100.00
28935;BME280;16044;52.726;-2.108;2022-12-18T09:11:23;100594.59;;;-0.29;100.00
28935;BME280;16044;52.726;-2.108;2022-12-18T09:13:53;100574.03;;;-0.27;100.00
28935;BME280;16044;52.726;-2.108;2022-12-18T09:16:22;100549.75;;;-0.23;100.00
28935;BME280;16044;52.726;-2.108;2022-12-18T09:18:57;100547.69;;;-0.19;100.00
28935;BME280;16044;52.726;-2.108;2022-12-18T09:21:33;100552.94;;;-0.17;100.00
28935;BME280;16044;52.726;-2.108;2022-12-18T09:24:02;100548.16;;;-0.12;100.00
28935;BME280;16044;52.726;-2.108;2022-12-18T09:26:32;100542.63;;;-0.09;100.00
28935;BME280;16044;52.726;-2.108;2022-12-18T09:28:59;100547.94;;;-0.09;100.00
28935;BME280;16044;52.726;-2.108;2022-12-18T09:31:26;100544.09;;;-0.05;100.00
28935;BME280;16044;52.726;-2.108;2022-12-18T09:33:55;100520.03;;;-0.04;100.00
28935;BME280;16044;52.726;-2.108;2022-12-18T09:36:22;100528.66;;;0.00;100.00
28935;BME280;16044;52.726;-2.108;2022-12-18T09:38:49;100522.13;;;0.04;100.00
28935;BME280;16044;52.726;-2.108;2022-12-18T09:47:18;100503.88;;;0.11;100.00
28935;BME280;16044;52.726;-2.108;2022-12-18T09:49:58;100491.53;;;0.10;100.00
28935;BME280;16044;52.726;-2.108;2022-12-18T09:52:34;100501.00;;;0.14;100.00
28935;BME280;16044;52.726;-2.108;2022-12-18T10:01:00;100503.97;;;0.22;99.70
28935;BME280;16044;52.726;-2.108;2022-12-18T10:03:27;100501.00;;;0.27;99.64
28935;BME280;16044;52.726;-2.108;2022-12-18T10:14:45;100466.72;;;0.33;99.61
28935;BME280;16044;52.726;-2.108;2022-12-18T10:17:47;100455.50;;;0.41;99.39
28935;BME280;16044;52.726;-2.108;2022-12-18T10:20:40;100448.13;;;0.45;99.40
28935;BME280;16044;52.726;-2.108;2022-12-18T10:26:04;100435.44;;;0.48;99.38
28935;BME280;16044;52.726;-2.108;2022-12-18T10:28:35;100432.41;;;0.53;99.53
28935;BME280;16044;52.726;-2.108;2022-12-18T10:31:16;100437.16;;;0.49;99.22
28935;BME280;16044;52.726;-2.108;2022-12-18T10:33:45;100421.19;;;0.61;99.19
28935;BME280;16044;52.726;-2.108;2022-12-18T10:36:13;100409.34;;;0.65;98.83
28935;BME280;16044;52.726;-2.108;2022-12-18T10:38:40;100411.88;;;0.66;98.77
28935;BME280;16044;52.726;-2.108;2022-12-18T10:43:47;100406.94;;;0.73;98.73
28935;BME280;16044;52.726;-2.108;2022-12-18T10:46:17;100400.38;;;0.77;98.66
28935;BME280;16044;52.726;-2.108;2022-12-18T10:51:39;100394.09;;;0.78;98.91
28935;BME280;16044;52.726;-2.108;2022-12-18T10:54:15;100382.09;;;0.84;98.89
28935;BME280;16044;52.726;-2.108;2022-12-18T10:56:44;100368.50;;;0.87;98.65
28935;BME280;16044;52.726;-2.108;2022-12-18T10:59:15;100361.75;;;0.94;98.37
28935;BME280;16044;52.726;-2.108;2022-12-18T11:04:30;100353.63;;;0.95;97.93
28935;BME280;16044;52.726;-2.108;2022-12-18T11:07:06;100343.56;;;0.99;97.73
28935;BME280;16044;52.726;-2.108;2022-12-18T11:09:35;100333.13;;;0.96;97.61
28935;BME280;16044;52.726;-2.108;2022-12-18T11:12:15;100327.19;;;1.04;97.24
28935;BME280;16044;52.726;-2.108;2022-12-18T11:14:49;100320.88;;;1.05;97.23
28935;BME280;16044;52.726;-2.108;2022-12-18T11:17:19;100320.78;;;1.06;97.35
28935;BME280;16044;52.726;-2.108;2022-12-18T11:19:53;100307.53;;;1.05;97.35
28935;BME280;16044;52.726;-2.108;2022-12-18T11:22:27;100313.38;;;1.10;97.00
28935;BME280;16044;52.726;-2.108;2022-12-18T11:25:18;100314.81;;;1.03;96.74
28935;BME280;16044;52.726;-2.108;2022-12-18T11:28:01;100312.66;;;1.08;96.77
28935;BME280;16044;52.726;-2.108;2022-12-18T11:30:35;100301.84;;;1.09;96.73
28935;BME280;16044;52.726;-2.108;2022-12-18T11:35:45;100323.06;;;1.11;96.89
28935;BME280;16044;52.726;-2.108;2022-12-18T11:38:24;100307.91;;;1.11;96.65
28935;BME280;16044;52.726;-2.108;2022-12-18T11:41:19;100303.66;;;1.09;96.54
28935;BME280;16044;52.726;-2.108;2022-12-18T11:44:29;100295.66;;;1.09;96.31
28935;BME280;16044;52.726;-2.108;2022-12-18T11:47:09;100289.47;;;1.08;96.50
28935;BME280;16044;52.726;-2.108;2022-12-18T11:49:55;100273.47;;;1.08;96.32
28935;BME280;16044;52.726;-2.108;2022-12-18T11:52:43;100272.63;;;1.08;96.53
28935;BME280;16044;52.726;-2.108;2022-12-18T11:55:13;100251.84;;;1.11;96.29
28935;BME280;16044;52.726;-2.108;2022-12-18T11:57:58;100247.00;;;1.05;96.63
28935;BME280;16044;52.726;-2.108;2022-12-18T12:00:49;100242.50;;;1.06;96.42
28935;BME280;16044;52.726;-2.108;2022-12-18T12:06:25;100227.97;;;1.10;96.67
28935;BME280;16044;52.726;-2.108;2022-12-18T12:15:17;100199.31;;;1.12;96.65
28935;BME280;16044;52.726;-2.108;2022-12-18T12:18:05;100196.50;;;1.13;96.62
28935;BME280;16044;52.726;-2.108;2022-12-18T12:20:49;100186.94;;;1.11;97.02
28935;BME280;16044;52.726;-2.108;2022-12-18T12:23:49;100192.16;;;1.12;97.23
28935;BME280;16044;52.726;-2.108;2022-12-18T12:30:06;100185.25;;;1.10;97.96
28935;BME280;16044;52.726;-2.108;2022-12-18T12:35:55;100173.59;;;1.11;98.95
28935;BME280;16044;52.726;-2.108;2022-12-18T12:38:35;100176.53;;;1.08;99.21
28935;BME280;16044;52.726;-2.108;2022-12-18T12:41:14;100172.63;;;1.12;99.40
28935;BME280;16044;52.726;-2.108;2022-12-18T12:44:05;100164.63;;;1.12;99.49
28935;BME280;16044;52.726;-2.108;2022-12-18T12:46:37;100152.34;;;1.09;99.99
28935;BME280;16044;52.726;-2.108;2022-12-18T12:49:14;100144.72;;;1.05;100.00
28935;BME280;16044;52.726;-2.108;2022-12-18T12:51:45;100135.72;;;1.06;100.00
28935;BME280;16044;52.726;-2.108;2022-12-18T12:54:26;100123.63;;;1.02;100.00
28935;BME280;16044;52.726;-2.108;2022-12-18T12:57:15;100119.16;;;1.02;100.00
28935;BME280;16044;52.726;-2.108;2022-12-18T13:02:37;100107.88;;;0.99;100.00
28935;BME280;16044;52.726;-2.108;2022-12-18T13:08:28;100093.03;;;1.06;100.00
28935;BME280;16044;52.726;-2.108;2022-12-18T13:11:00;100090.97;;;1.09;100.00
28935;BME280;16044;52.726;-2.108;2022-12-18T13:13:54;100082.84;;;1.11;100.00
28935;BME280;16044;52.726;-2.108;2022-12-18T13:16:24;100075.22;;;1.06;100.00
28935;BME280;16044;52.726;-2.108;2022-12-18T13:18:56;100072.16;;;1.11;100.00
28935;BME280;16044;52.726;-2.108;2022-12-18T13:21:29;100052.88;;;1.07;100.00
28935;BME280;16044;52.726;-2.108;2022-12-18T13:24:15;100043.19;;;1.06;100.00
28935;BME280;16044;52.726;-2.108;2022-12-18T13:26:50;100043.91;;;1.08;100.00
28935;BME280;16044;52.726;-2.108;2022-12-18T13:29:44;100046.94;;;1.04;100.00
28935;BME280;16044;52.726;-2.108;2022-12-18T13:32:22;100045.00;;;1.06;100.00
28935;BME280;16044;52.726;-2.108;2022-12-18T13:37:52;100040.53;;;1.06;100.00
28935;BME280;16044;52.726;-2.108;2022-12-18T13:48:50;100000.94;;;1.11;100.00
28935;BME280;16044;52.726;-2.108;2022-12-18T13:51:25;99993.06;;;1.10;100.00
28935;BME280;16044;52.726;-2.108;2022-12-18T13:56:28;99987.59;;;1.11;100.00
28935;BME280;16044;52.726;-2.108;2022-12-18T13:59:15;99975.94;;;1.12;100.00
28935;BME280;16044;52.726;-2.108;2022-12-18T14:01:58;99968.66;;;1.14;100.00
28935;BME280;16044;52.726;-2.108;2022-12-18T14:04:34;99960.53;;;1.16;100.00
28935;BME280;16044;52.726;-2.108;2022-12-18T14:07:07;99956.13;;;1.15;100.00
28935;BME280;16044;52.726;-2.108;2022-12-18T14:09:45;99961.94;;;1.20;100.00
28935;BME280;16044;52.726;-2.108;2022-12-18T14:12:18;99956.59;;;1.20;100.00
28935;BME280;16044;52.726;-2.108;2022-12-18T14:15:35;99956.50;;;1.22;100.00
28935;BME280;16044;52.726;-2.108;2022-12-18T14:18:21;99943.72;;;1.25;100.00
28935;BME280;16044;52.726;-2.108;2022-12-18T14:20:54;99937.69;;;1.23;100.00
28935;BME280;16044;52.726;-2.108;2022-12-18T14:23:40;99939.22;;;1.26;100.00
28935;BME280;16044;52.726;-2.108;2022-12-18T14:26:28;99938.09;;;1.28;100.00
28935;BME280;16044;52.726;-2.108;2022-12-18T14:28:58;99929.97;;;1.30;100.00
28935;BME280;16044;52.726;-2.108;2022-12-18T14:31:31;99929.25;;;1.28;100.00
28935;BME280;16044;52.726;-2.108;2022-12-18T14:33:58;99924.50;;;1.31;100.00
28935;BME280;16044;52.726;-2.108;2022-12-18T14:36:28;99915.78;;;1.29;100.00
28935;BME280;16044;52.726;-2.108;2022-12-18T14:38:57;99909.78;;;1.37;100.00
28935;BME280;16044;52.726;-2.108;2022-12-18T14:41:26;99907.81;;;1.39;100.00
28935;BME280;16044;52.726;-2.108;2022-12-18T14:43:54;99889.00;;;1.41;100.00
28935;BME280;16044;52.726;-2.108;2022-12-18T14:46:37;99885.50;;;1.40;100.00